地図

経路データ

SID SEASON NUMBER BASIN SUBBASIN NAME ISO_TIME NATURE LAT LON WMO_WIND WMO_PRES WMO_AGENCY TRACK_TYPE DIST2LAND LANDFALL IFLAG USA_AGENCY USA_ATCF_ID USA_LAT USA_LON USA_RECORD USA_STATUS USA_WIND USA_PRES USA_SSHS USA_R34_NE USA_R34_SE USA_R34_SW USA_R34_NW USA_R50_NE USA_R50_SE USA_R50_SW USA_R50_NW USA_R64_NE USA_R64_SE USA_R64_SW USA_R64_NW USA_POCI USA_ROCI USA_RMW USA_EYE TOKYO_LAT TOKYO_LON TOKYO_GRADE TOKYO_WIND TOKYO_PRES TOKYO_R50_DIR TOKYO_R50_LONG TOKYO_R50_SHORT TOKYO_R30_DIR TOKYO_R30_LONG TOKYO_R30_SHORT TOKYO_LAND CMA_LAT CMA_LON CMA_CAT CMA_WIND CMA_PRES HKO_LAT HKO_LON HKO_CAT HKO_WIND HKO_PRES NEWDELHI_LAT NEWDELHI_LON NEWDELHI_GRADE NEWDELHI_WIND NEWDELHI_PRES NEWDELHI_CI NEWDELHI_DP NEWDELHI_POCI REUNION_LAT REUNION_LON REUNION_TYPE REUNION_WIND REUNION_PRES REUNION_TNUM REUNION_CI REUNION_RMW REUNION_R34_NE REUNION_R34_SE REUNION_R34_SW REUNION_R34_NW REUNION_R50_NE REUNION_R50_SE REUNION_R50_SW REUNION_R50_NW REUNION_R64_NE REUNION_R64_SE REUNION_R64_SW REUNION_R64_NW BOM_LAT BOM_LON BOM_TYPE BOM_WIND BOM_PRES BOM_TNUM BOM_CI BOM_RMW BOM_R34_NE BOM_R34_SE BOM_R34_SW BOM_R34_NW BOM_R50_NE BOM_R50_SE BOM_R50_SW BOM_R50_NW BOM_R64_NE BOM_R64_SE BOM_R64_SW BOM_R64_NW BOM_ROCI BOM_POCI BOM_EYE BOM_POS_METHOD BOM_PRES_METHOD NADI_LAT NADI_LON NADI_CAT NADI_WIND NADI_PRES WELLINGTON_LAT WELLINGTON_LON WELLINGTON_WIND WELLINGTON_PRES DS824_LAT DS824_LON DS824_STAGE DS824_WIND DS824_PRES TD9636_LAT TD9636_LON TD9636_STAGE TD9636_WIND TD9636_PRES TD9635_LAT TD9635_LON TD9635_WIND TD9635_PRES TD9635_ROCI NEUMANN_LAT NEUMANN_LON NEUMANN_CLASS NEUMANN_WIND NEUMANN_PRES MLC_LAT MLC_LON MLC_CLASS MLC_WIND MLC_PRES USA_GUST BOM_GUST BOM_GUST_PER REUNION_GUST REUNION_GUST_PER USA_SEAHGT USA_SEARAD_NE USA_SEARAD_SE USA_SEARAD_SW USA_SEARAD_NW STORM_SPEED STORM_DIR
1962229N15247 1962 63 EP MM AVA 1962-08-16 12:00:00 TS 15.0000 -113.000 45 hurdat_epa main 938 928 O________OO___ hurdat_epa EP031962 15.0000 -113.000 TS 45 0 15.0000 -113.000 TC 45 15.0000 -113.000 2 8 300
1962229N15247 1962 63 EP MM AVA 1962-08-16 15:00:00 TS 15.2004 -113.356 main 932 920 P________PP___ EP031962 15.1976 -113.357 TS 45 0 15.1976 -113.357 TC 45 15.2115 -113.351 2 8 301
1962229N15247 1962 63 EP MM AVA 1962-08-16 18:00:00 TS 15.4036 -113.698 45 hurdat_epa main 924 913 O________OP___ hurdat_epa EP031962 15.4000 -113.700 TS 45 0 15.4000 -113.700 TC 45 15.4182 -113.692 2 8 303
1962229N15247 1962 63 EP MM AVA 1962-08-16 21:00:00 TS 15.6091 -114.014 main 918 908 P________PP___ EP031962 15.6075 -114.015 TS 45 0 15.6075 -114.015 TC 45 15.6158 -114.012 2 7 304
1962229N15247 1962 63 EP MM AVA 1962-08-17 00:00:00 TS 15.8000 -114.300 45 hurdat_epa main 913 908 O________OO___ hurdat_epa EP031962 15.8000 -114.300 TS 45 0 15.8000 -114.300 TC 45 15.8000 -114.300 2 6 303
1962229N15247 1962 63 EP MM AVA 1962-08-17 03:00:00 TS 15.9539 -114.556 main 909 905 P________PP___ EP031962 15.9499 -114.558 TS 45 0 15.9499 -114.558 TC 45 15.9696 -114.552 2 6 303
1962229N15247 1962 63 EP MM AVA 1962-08-17 06:00:00 TS 16.1069 -114.797 45 hurdat_epa main 911 904 O________OP___ hurdat_epa EP031962 16.1000 -114.800 TS 45 0 16.1000 -114.800 TC 45 16.1344 -114.786 2 6 307
1962229N15247 1962 63 EP MM AVA 1962-08-17 09:00:00 TS 16.2893 -115.027 main 904 899 P________PP___ EP031962 16.2849 -115.028 TS 45 0 16.2849 -115.028 TC 45 16.3071 -115.027 2 6 309
1962229N15247 1962 63 EP MM AVA 1962-08-17 12:00:00 TS 16.5000 -115.300 45 hurdat_epa main 905 900 O________OO___ hurdat_epa EP031962 16.5000 -115.300 TS 45 0 16.5000 -115.300 TC 45 16.5000 -115.300 2 8 306
1962229N15247 1962 63 EP MM AVA 1962-08-17 15:00:00 TS 16.7382 -115.682 main 914 905 P________PP___ EP031962 16.7426 -115.685 TS 45 0 16.7426 -115.685 TC 45 16.7207 -115.671 2 9 303
1962229N15247 1962 63 EP MM AVA 1962-08-17 18:00:00 TS 16.9926 -116.094 45 hurdat_epa main 917 916 O________OP___ hurdat_epa EP031962 17.0000 -116.100 TS 45 0 17.0000 -116.100 TC 45 16.9631 -116.072 2 9 303
1962229N15247 1962 63 EP MM AVA 1962-08-17 21:00:00 TS 17.2388 -116.476 main 930 923 P________PP___ EP031962 17.2425 -116.480 TS 45 0 17.2425 -116.480 TC 45 17.2239 -116.462 2 8 307
1962229N15247 1962 63 EP MM AVA 1962-08-18 00:00:00 TS 17.5000 -116.800 45 hurdat_epa main 931 922 O________OO___ hurdat_epa EP031962 17.5000 -116.800 TS 45 0 17.5000 -116.800 TC 45 17.5000 -116.800 2 8 316
1962229N15247 1962 63 EP MM AVA 1962-08-18 03:00:00 TS 17.7902 -117.031 main 922 907 P________PP___ EP031962 17.7924 -117.030 TS 45 0 17.7924 -117.030 TC 45 17.7811 -117.033 2 7 327
1962229N15247 1962 63 EP MM AVA 1962-08-18 06:00:00 TS 18.0954 -117.202 45 hurdat_epa main 907 885 O________OP___ hurdat_epa EP031962 18.1000 -117.200 TS 45 0 18.1000 -117.200 TC 45 18.0770 -117.211 2 7 333
1962229N15247 1962 63 EP MM AVA 1962-08-18 09:00:00 TS 18.3968 -117.358 main 892 872 P________PP___ EP031962 18.4000 -117.358 TS 45 0 18.4000 -117.358 TC 45 18.3844 -117.358 2 7 335
1962229N15247 1962 63 EP MM AVA 1962-08-18 12:00:00 TS 18.7000 -117.500 45 hurdat_epa main 872 853 O________OO___ hurdat_epa EP031962 18.7000 -117.500 TS 45 0 18.7000 -117.500 TC 45 18.7000 -117.500 2 7 335
1962229N15247 1962 63 EP MM AVA 1962-08-18 15:00:00 TS 18.9951 -117.652 main 859 842 P________PP___ EP031962 18.9925 -117.643 TS 45 0 18.9925 -117.643 TC 45 19.0057 -117.687 2 7 334
1962229N15247 1962 63 EP MM AVA 1962-08-18 18:00:00 TS 19.3040 -117.815 45 hurdat_epa main 842 832 O________OP___ hurdat_epa EP031962 19.3000 -117.800 TS 45 0 19.3000 -117.800 TC 45 19.3201 -117.873 2 7 332
1962229N15247 1962 63 EP MM AVA 1962-08-18 21:00:00 TS 19.6379 -118.015 main 832 817 P________PP___ EP031962 19.6350 -118.007 TS 45 0 19.6350 -118.007 TC 45 19.6494 -118.047 2 8 333
1962229N15247 1962 63 EP MM AVA 1962-08-19 00:00:00 TS 20.0000 -118.200 45 hurdat_epa main 817 795 O________OO___ hurdat_epa EP031962 20.0000 -118.200 TS 45 0 20.0000 -118.200 TC 45 20.0000 -118.200 2 8 340
1962229N15247 1962 63 EP MM AVA 1962-08-19 03:00:00 TS 20.3921 -118.316 main 795 776 P________PP___ EP031962 20.3925 -118.315 TS 45 0 20.3925 -118.315 TC 45 20.3905 -118.322 2 8 347
1962229N15247 1962 63 EP MM AVA 1962-08-19 06:00:00 TS 20.8000 -118.405 45 hurdat_epa main 776 759 O________OP___ hurdat_epa EP031962 20.8000 -118.400 TS 45 0 20.8000 -118.400 TC 45 20.7999 -118.423 2 8 348
1962229N15247 1962 63 EP MM AVA 1962-08-19 09:00:00 TS 21.2079 -118.503 main 759 745 P________PP___ EP031962 21.2075 -118.500 TS 45 0 21.2075 -118.500 TC 45 21.2093 -118.512 2 8 347
1962229N15247 1962 63 EP MM AVA 1962-08-19 12:00:00 TS 21.6000 -118.600 45 hurdat_epa main 745 734 O________OO___ hurdat_epa EP031962 21.6000 -118.600 TS 45 0 21.6000 -118.600 TC 45 21.6000 -118.600 2 8 346
1962229N15247 1962 63 EP MM AVA 1962-08-19 15:00:00 TS 21.9636 -118.699 main 725 704 P________PP___ EP031962 21.9650 -118.700 TS 45 0 21.9650 -118.700 TC 45 21.9579 -118.693 2 7 345
1962229N15247 1962 63 EP MM AVA 1962-08-19 18:00:00 TS 22.2975 -118.798 45 hurdat_epa main 704 685 O________OP___ hurdat_epa EP031962 22.3000 -118.800 TS 45 0 22.3000 -118.800 TC 45 22.2876 -118.792 2 7 344
1962229N15247 1962 63 EP MM AVA 1962-08-19 21:00:00 TS 22.6057 -118.899 main 685 667 P________PP___ EP031962 22.6075 -118.900 TS 45 0 22.6075 -118.900 TC 45 22.5985 -118.895 2 6 343
1962229N15247 1962 63 EP MM AVA 1962-08-20 00:00:00 TS 22.9000 -119.000 45 hurdat_epa main 667 O________OO___ hurdat_epa EP031962 22.9000 -119.000 TS 45 0 22.9000 -119.000 TC 45 22.9000 -119.000 2 6 342

IBTrACS Databaseについて

本データベースは、米国NOAAが公開する1842年以降の世界の熱帯低気圧のベストトラックデータアーカイブInternational Best Track Archive for Climate Stewardship (IBTrACS)を、ウェブで閲覧しやすい形式に変換したものです。

最終更新日:2021-12-03